Time,TemperatureF,DewpointF,PressureIn,WindDirection,WindDirectionDegrees,WindSpeedMPH,WindSpeedGustMPH,Humidity,HourlyPrecipIn,Conditions,Clouds,dailyrainin,SoftwareType,DateUTC
2013-02-13 00:06:00,47.0,46.0,29.94,SE,139,0.0,0.0,95,0.04,,,0.07,weatherlink.com 1.10,2013-02-13 05:06:00,
2013-02-13 00:21:00,47.0,46.0,29.93,SE,139,0.0,1.0,95,0.04,,,0.08,weatherlink.com 1.10,2013-02-13 05:21:00,
2013-02-13 00:36:00,46.8,46.0,29.91,SE,139,0.0,0.0,95,0.03,,,0.09,weatherlink.com 1.10,2013-02-13 05:36:00,
2013-02-13 00:51:00,46.4,45.0,29.89,SE,139,0.0,0.0,95,0.02,,,0.09,weatherlink.com 1.10,2013-02-13 05:51:00,
2013-02-13 01:06:00,46.0,45.0,29.86,SE,139,0.0,0.0,95,0.02,,,0.09,weatherlink.com 1.10,2013-02-13 06:06:00,
2013-02-13 01:21:00,46.0,45.0,29.87,SE,139,0.0,0.0,95,0.01,,,0.09,weatherlink.com 1.10,2013-02-13 06:21:00,
2013-02-13 01:36:00,46.0,45.0,29.86,SE,139,0.0,0.0,95,0.00,,,0.09,weatherlink.com 1.10,2013-02-13 06:36:00,
2013-02-13 01:51:00,46.1,45.0,29.85,SE,139,0.0,0.0,96,0.00,,,0.09,weatherlink.com 1.10,2013-02-13 06:51:00,
2013-02-13 02:06:00,46.2,45.0,29.85,SE,139,0.0,0.0,96,0.00,,,0.09,weatherlink.com 1.10,2013-02-13 07:06:00,
2013-02-13 02:21:00,46.2,45.0,29.86,SE,139,0.0,0.0,96,0.00,,,0.00,weatherlink.com 1.10,2013-02-13 07:21:00,
2013-02-13 02:36:00,46.2,45.0,29.84,SE,139,0.0,0.0,96,0.01,,,0.01,weatherlink.com 1.10,2013-02-13 07:36:00,
2013-02-13 02:51:00,46.1,45.0,29.83,SE,139,0.0,0.0,96,0.01,,,0.01,weatherlink.com 1.10,2013-02-13 07:51:00,
2013-02-13 03:06:00,46.0,45.0,29.83,SE,139,0.0,0.0,96,0.01,,,0.01,weatherlink.com 1.10,2013-02-13 08:06:00,
2013-02-13 03:21:00,46.0,45.0,29.83,SE,139,0.0,0.0,96,0.01,,,0.01,weatherlink.com 1.10,2013-02-13 08:21:00,
2013-02-13 03:36:00,45.8,45.0,29.82,SE,139,0.0,0.0,96,0.00,,,0.01,weatherlink.com 1.10,2013-02-13 08:36:00,
2013-02-13 03:51:00,45.8,45.0,29.82,SE,139,0.0,0.0,96,0.00,,,0.01,weatherlink.com 1.10,2013-02-13 08:51:00,
2013-02-13 04:06:00,45.8,45.0,29.83,SE,139,0.0,0.0,96,0.00,,,0.01,weatherlink.com 1.10,2013-02-13 09:06:00,
2013-02-13 04:21:00,45.8,45.0,29.82,SE,139,0.0,0.0,96,0.00,,,0.01,weatherlink.com 1.10,2013-02-13 09:21:00,
2013-02-13 04:37:00,45.5,45.0,29.81,SE,139,0.0,1.0,96,0.00,,,0.01,weatherlink.com 1.10,2013-02-13 09:37:00,
2013-02-13 04:52:00,45.1,44.0,29.81,SE,139,0.0,0.0,95,0.00,,,0.01,weatherlink.com 1.10,2013-02-13 09:52:00,
2013-02-13 05:07:00,45.1,44.0,29.80,SE,139,0.0,1.0,95,0.00,,,0.01,weatherlink.com 1.10,2013-02-13 10:07:00,
2013-02-13 05:22:00,44.6,43.0,29.81,SE,139,0.0,0.0,92,0.00,,,0.01,weatherlink.com 1.10,2013-02-13 10:22:00,
2013-02-13 05:37:00,44.3,42.0,29.80,SE,139,0.0,1.0,92,0.00,,,0.01,weatherlink.com 1.10,2013-02-13 10:37:00,
2013-02-13 05:52:00,44.3,42.0,29.79,SE,139,0.0,0.0,93,0.00,,,0.01,weatherlink.com 1.10,2013-02-13 10:52:00,
2013-02-13 06:07:00,44.2,42.0,29.79,SE,139,0.0,0.0,93,0.00,,,0.01,weatherlink.com 1.10,2013-02-13 11:07:00,
2013-02-13 06:22:00,44.2,43.0,29.78,SE,139,0.0,0.0,94,0.00,,,0.01,weatherlink.com 1.10,2013-02-13 11:22:00,
2013-02-13 06:37:00,44.2,43.0,29.78,SE,139,0.0,0.0,94,0.00,,,0.01,weatherlink.com 1.10,2013-02-13 11:37:00,
2013-02-13 06:52:00,44.3,43.0,29.80,SE,139,0.0,0.0,95,0.00,,,0.01,weatherlink.com 1.10,2013-02-13 11:52:00,
2013-02-13 07:07:00,44.2,43.0,29.79,SE,139,0.0,0.0,95,0.00,,,0.01,weatherlink.com 1.10,2013-02-13 12:07:00,
2013-02-13 07:22:00,44.2,43.0,29.79,SE,139,0.0,0.0,95,0.01,,,0.02,weatherlink.com 1.10,2013-02-13 12:22:00,
2013-02-13 07:37:00,44.2,43.0,29.79,SE,138,0.0,0.0,95,0.01,,,0.02,weatherlink.com 1.10,2013-02-13 12:37:00,
2013-02-13 07:52:00,44.2,43.0,29.78,SE,138,0.0,0.0,96,0.01,,,0.02,weatherlink.com 1.10,2013-02-13 12:52:00,
2013-02-13 08:07:00,44.3,43.0,29.78,SE,138,0.0,0.0,96,0.01,,,0.02,weatherlink.com 1.10,2013-02-13 13:07:00,
2013-02-13 08:22:00,44.3,43.0,29.79,SE,138,0.0,1.0,96,0.00,,,0.02,weatherlink.com 1.10,2013-02-13 13:22:00,
2013-02-13 08:37:00,44.2,43.0,29.77,East,94,0.0,3.0,96,0.00,,,0.02,weatherlink.com 1.10,2013-02-13 13:37:00,
2013-02-13 08:52:00,44.2,43.0,29.77,ENE,59,0.0,1.0,96,0.00,,,0.02,weatherlink.com 1.10,2013-02-13 13:52:00,
2013-02-13 09:07:00,44.3,43.0,29.78,NE,49,0.0,1.0,96,0.00,,,0.02,weatherlink.com 1.10,2013-02-13 14:07:00,
2013-02-13 09:22:00,44.6,44.0,29.77,NE,49,0.0,0.0,96,0.00,,,0.02,weatherlink.com 1.10,2013-02-13 14:22:00,
2013-02-13 09:37:00,44.6,44.0,29.79,NE,49,0.0,0.0,96,0.00,,,0.02,weatherlink.com 1.10,2013-02-13 14:37:00,
2013-02-13 09:52:00,44.6,44.0,29.77,ESE,121,0.0,1.0,96,0.01,,,0.03,weatherlink.com 1.10,2013-02-13 14:52:00,
2013-02-13 10:07:00,44.8,44.0,29.77,ESE,121,0.0,2.0,96,0.01,,,0.03,weatherlink.com 1.10,2013-02-13 15:07:00,
2013-02-13 10:22:00,44.8,44.0,29.75,East,95,0.0,3.0,96,0.01,,,0.03,weatherlink.com 1.10,2013-02-13 15:22:00,
2013-02-13 10:37:00,45.1,44.0,29.75,East,98,0.0,2.0,96,0.01,,,0.03,weatherlink.com 1.10,2013-02-13 15:37:00,
2013-02-13 10:52:00,44.9,44.0,29.75,NNW,335,0.0,3.0,96,0.00,,,0.03,weatherlink.com 1.10,2013-02-13 15:52:00,
2013-02-13 11:07:00,44.9,44.0,29.75,NE,44,1.0,3.0,96,0.00,,,0.03,weatherlink.com 1.10,2013-02-13 16:07:00,
2013-02-13 11:22:00,45.1,44.0,29.72,SE,137,0.0,2.0,96,0.00,,,0.03,weatherlink.com 1.10,2013-02-13 16:22:00,
2013-02-13 11:37:00,45.1,44.0,29.74,ESE,119,0.0,2.0,96,0.00,,,0.03,weatherlink.com 1.10,2013-02-13 16:37:00,
2013-02-13 11:52:00,45.2,44.0,29.74,ESE,119,0.0,1.0,96,0.00,,,0.03,weatherlink.com 1.10,2013-02-13 16:52:00,
2013-02-13 12:07:00,44.9,44.0,29.72,East,94,0.0,3.0,96,0.01,,,0.04,weatherlink.com 1.10,2013-02-13 17:07:00,
2013-02-13 12:22:00,45.2,44.0,29.71,East,96,0.0,1.0,96,0.01,,,0.04,weatherlink.com 1.10,2013-02-13 17:22:00,
2013-02-13 12:37:00,45.4,44.0,29.69,SE,136,0.0,2.0,96,0.01,,,0.04,weatherlink.com 1.10,2013-02-13 17:37:00,
2013-02-13 12:52:00,45.5,45.0,29.69,SE,140,0.0,2.0,96,0.01,,,0.04,weatherlink.com 1.10,2013-02-13 17:52:00,
2013-02-13 13:07:00,45.5,45.0,29.66,SE,146,0.0,2.0,96,0.00,,,0.04,weatherlink.com 1.10,2013-02-13 18:07:00,
2013-02-13 13:22:00,45.7,45.0,29.66,SE,146,0.0,1.0,96,0.00,,,0.04,weatherlink.com 1.10,2013-02-13 18:22:00,
2013-02-13 13:37:00,45.8,45.0,29.67,SE,146,0.0,0.0,96,0.00,,,0.04,weatherlink.com 1.10,2013-02-13 18:37:00,
2013-02-13 13:52:00,46.0,45.0,29.64,SSE,151,0.0,2.0,97,0.00,,,0.04,weatherlink.com 1.10,2013-02-13 18:52:00,
2013-02-13 14:07:00,46.1,45.0,29.67,SW,215,0.0,3.0,97,0.01,,,0.05,weatherlink.com 1.10,2013-02-13 19:07:00,
2013-02-13 14:37:00,46.4,46.0,29.66,SW,234,3.0,5.0,97,0.01,,,0.05,weatherlink.com 1.10,2013-02-13 19:37:00,
2013-02-13 15:07:00,47.0,46.0,29.65,WSW,238,0.0,5.0,96,0.00,,,0.05,weatherlink.com 1.10,2013-02-13 20:07:00,
2013-02-13 15:22:00,47.0,46.0,29.66,SW,234,2.0,7.0,96,0.00,,,0.05,weatherlink.com 1.10,2013-02-13 20:22:00,
2013-02-13 15:37:00,47.4,46.0,29.67,WSW,238,1.0,3.0,95,0.00,,,0.05,weatherlink.com 1.10,2013-02-13 20:37:00,
2013-02-13 15:52:00,47.6,46.0,29.66,SW,231,0.0,4.0,94,0.00,,,0.05,weatherlink.com 1.10,2013-02-13 20:52:00,
2013-02-13 16:07:00,47.7,46.0,29.66,WSW,244,2.0,4.0,92,0.00,,,0.05,weatherlink.com 1.10,2013-02-13 21:07:00,
2013-02-13 16:22:00,47.6,45.0,29.67,SW,215,1.0,7.0,90,0.00,,,0.05,weatherlink.com 1.10,2013-02-13 21:22:00,
2013-02-13 16:37:00,47.7,45.0,29.66,SW,217,0.0,7.0,90,0.00,,,0.05,weatherlink.com 1.10,2013-02-13 21:37:00,
2013-02-13 16:52:00,47.9,45.0,29.66,SSW,212,0.0,4.0,88,0.00,,,0.05,weatherlink.com 1.10,2013-02-13 21:52:00,
2013-02-13 17:07:00,48.0,45.0,29.67,SW,214,3.0,7.0,88,0.00,,,0.05,weatherlink.com 1.10,2013-02-13 22:07:00,
2013-02-13 17:22:00,48.2,45.0,29.66,West,262,0.0,4.0,87,0.00,,,0.05,weatherlink.com 1.10,2013-02-13 22:22:00,
2013-02-13 17:37:00,48.2,45.0,29.67,SW,236,1.0,5.0,87,0.00,,,0.05,weatherlink.com 1.10,2013-02-13 22:37:00,
2013-02-13 17:52:00,48.3,44.0,29.69,SW,233,4.0,8.0,86,0.00,,,0.05,weatherlink.com 1.10,2013-02-13 22:52:00,
2013-02-13 18:07:00,48.5,45.0,29.70,SW,234,1.0,4.0,86,0.00,,,0.05,weatherlink.com 1.10,2013-02-13 23:07:00,
2013-02-13 18:22:00,48.5,45.0,29.71,WSW,252,0.0,4.0,86,0.00,,,0.05,weatherlink.com 1.10,2013-02-13 23:22:00,
2013-02-13 18:37:00,48.3,45.0,29.71,WSW,249,0.0,1.0,87,0.00,,,0.05,weatherlink.com 1.10,2013-02-13 23:37:00,
2013-02-13 18:52:00,48.2,45.0,29.72,WNW,288,0.0,2.0,87,0.00,,,0.05,weatherlink.com 1.10,2013-02-13 23:52:00,
2013-02-13 19:07:00,48.0,44.0,29.73,WSW,249,0.0,3.0,87,0.00,,,0.05,weatherlink.com 1.10,2013-02-14 00:07:00,
2013-02-13 19:22:00,47.6,44.0,29.73,WSW,249,0.0,1.0,88,0.00,,,0.05,weatherlink.com 1.10,2013-02-14 00:22:00,
2013-02-13 19:37:00,47.3,44.0,29.74,WSW,249,0.0,1.0,89,0.00,,,0.05,weatherlink.com 1.10,2013-02-14 00:37:00,
2013-02-13 19:52:00,47.1,44.0,29.75,WSW,249,0.0,0.0,90,0.00,,,0.05,weatherlink.com 1.10,2013-02-14 00:52:00,
2013-02-13 20:07:00,46.8,44.0,29.75,WSW,249,0.0,0.0,90,0.00,,,0.05,weatherlink.com 1.10,2013-02-14 01:07:00,
2013-02-13 20:22:00,46.4,44.0,29.76,WSW,249,0.0,0.0,91,0.00,,,0.05,weatherlink.com 1.10,2013-02-14 01:22:00,
2013-02-13 20:37:00,46.1,44.0,29.76,WSW,248,0.0,0.0,92,0.00,,,0.05,weatherlink.com 1.10,2013-02-14 01:37:00,
2013-02-13 20:52:00,46.1,44.0,29.76,WSW,249,0.0,0.0,93,0.00,,,0.05,weatherlink.com 1.10,2013-02-14 01:52:00,
2013-02-13 21:07:00,46.1,41.0,29.78,West,272,0.0,4.0,81,0.00,,,0.05,weatherlink.com 1.10,2013-02-14 02:07:00,
2013-02-13 21:22:00,45.8,37.0,29.79,ESE,118,0.0,5.0,71,0.00,,,0.05,weatherlink.com 1.10,2013-02-14 02:22:00,
2013-02-13 21:37:00,45.4,36.0,29.79,NW,307,0.0,4.0,69,0.00,,,0.05,weatherlink.com 1.10,2013-02-14 02:37:00,
2013-02-13 21:53:00,44.6,36.0,29.81,NW,320,0.0,1.0,71,0.00,,,0.05,weatherlink.com 1.10,2013-02-14 02:53:00,
2013-02-13 22:07:00,44.1,36.0,29.81,South,182,0.0,1.0,72,0.00,,,0.05,weatherlink.com 1.10,2013-02-14 03:07:00,
2013-02-13 22:23:00,43.2,36.0,29.83,South,182,0.0,0.0,76,0.00,,,0.05,weatherlink.com 1.10,2013-02-14 03:23:00,
2013-02-13 22:38:00,42.2,35.0,29.84,South,182,0.0,0.0,77,0.00,,,0.05,weatherlink.com 1.10,2013-02-14 03:38:00,
2013-02-13 22:53:00,41.3,35.0,29.84,South,182,0.0,0.0,79,0.00,,,0.05,weatherlink.com 1.10,2013-02-14 03:53:00,
2013-02-13 23:08:00,40.3,35.0,29.84,South,182,0.0,0.0,82,0.00,,,0.05,weatherlink.com 1.10,2013-02-14 04:08:00,
2013-02-13 23:23:00,39.6,35.0,29.85,South,182,0.0,0.0,84,0.00,,,0.05,weatherlink.com 1.10,2013-02-14 04:23:00,
2013-02-13 23:38:00,39.1,35.0,29.86,South,182,0.0,0.0,86,0.00,,,0.05,weatherlink.com 1.10,2013-02-14 04:38:00,
2013-02-13 23:53:00,38.3,35.0,29.87,South,182,0.0,0.0,87,0.00,,,0.05,weatherlink.com 1.10,2013-02-14 04:53:00,